createdAt,value
2023-01-13T00:02:24.361Z,59.46
2023-01-13T00:04:51.245Z,59.45
2023-01-13T00:07:18.095Z,59.48
2023-01-13T00:09:45.397Z,59.43
2023-01-13T00:12:12.214Z,59.41
2023-01-13T00:14:39.031Z,59.37
2023-01-13T00:17:06.051Z,59.41
2023-01-13T00:19:32.874Z,59.50
2023-01-13T00:21:59.699Z,59.51
2023-01-13T00:24:26.720Z,59.48
2023-01-13T00:26:53.531Z,59.47
2023-01-13T00:29:20.348Z,59.45
2023-01-13T00:31:47.209Z,59.46
2023-01-13T00:34:14.023Z,59.43
2023-01-13T00:36:40.842Z,59.46
2023-01-13T00:39:07.663Z,59.48
2023-01-13T00:41:34.694Z,59.50
2023-01-13T00:44:01.563Z,59.51
2023-01-13T00:46:28.672Z,59.50
2023-01-13T00:48:55.499Z,59.52
2023-01-13T00:51:22.329Z,59.51
2023-01-13T00:53:49.388Z,59.53
2023-01-13T00:56:18.111Z,59.52
2023-01-13T00:58:45.071Z,59.46
2023-01-13T01:01:12.000Z,59.44
2023-01-13T01:03:38.963Z,59.47
2023-01-13T01:06:05.992Z,59.49
2023-01-13T01:08:32.803Z,59.50
2023-01-13T01:10:59.831Z,59.53
2023-01-13T01:13:26.669Z,59.49
2023-01-13T01:15:53.718Z,59.47
2023-01-13T01:18:20.565Z,59.48
2023-01-13T01:20:47.604Z,59.54
2023-01-13T01:23:14.432Z,59.50
2023-01-13T01:25:41.259Z,59.46
2023-01-13T01:28:08.097Z,59.49
2023-01-13T01:30:34.912Z,59.57
2023-01-13T01:33:01.944Z,59.63
2023-01-13T01:35:28.981Z,59.58
2023-01-13T01:37:55.827Z,59.60
2023-01-13T01:40:22.859Z,59.61
2023-01-13T01:42:49.665Z,59.61
2023-01-13T01:45:16.481Z,59.64
2023-01-13T01:47:43.296Z,59.59
2023-01-13T01:50:10.113Z,59.60
2023-01-13T01:52:37.151Z,59.66
2023-01-13T01:55:03.966Z,59.64
2023-01-13T01:57:31.003Z,59.62
2023-01-13T01:59:57.846Z,59.64
2023-01-13T02:02:24.921Z,59.66
2023-01-13T02:04:51.744Z,59.68
2023-01-13T02:07:18.558Z,59.60
2023-01-13T02:09:45.379Z,59.66
2023-01-13T02:12:12.191Z,59.66
2023-01-13T02:14:39.013Z,59.65
2023-01-13T02:17:05.825Z,59.64
2023-01-13T02:19:32.654Z,59.64
2023-01-13T02:21:59.471Z,59.64
2023-01-13T02:24:26.841Z,59.63
2023-01-13T02:26:53.666Z,59.69
2023-01-13T02:29:20.941Z,59.66
2023-01-13T02:31:47.784Z,59.68
2023-01-13T02:34:14.599Z,59.66
2023-01-13T02:36:41.435Z,59.73
2023-01-13T02:39:08.467Z,59.66
2023-01-13T02:41:35.288Z,59.68
2023-01-13T02:44:02.335Z,59.69
2023-01-13T02:46:29.382Z,59.65
2023-01-13T02:48:56.201Z,59.62
2023-01-13T02:51:23.017Z,59.62
2023-01-13T02:53:49.836Z,59.68
2023-01-13T02:56:16.648Z,59.67
2023-01-13T02:58:43.464Z,59.71
2023-01-13T03:01:10.497Z,59.69
2023-01-13T03:03:37.199Z,59.76
2023-01-13T03:06:03.858Z,59.76
2023-01-13T03:08:30.534Z,59.74
2023-01-13T03:10:57.208Z,59.70
2023-01-13T03:13:24.076Z,59.73
2023-01-13T03:15:50.716Z,59.74
2023-01-13T03:18:17.358Z,59.72
2023-01-13T03:20:43.993Z,59.78
2023-01-13T03:23:10.831Z,59.74
2023-01-13T03:25:37.689Z,59.75
2023-01-13T03:28:04.356Z,59.78
2023-01-13T03:30:31.049Z,59.75
2023-01-13T03:32:57.705Z,59.70
2023-01-13T03:35:24.358Z,59.73
2023-01-13T03:37:51.219Z,59.73
2023-01-13T03:40:18.087Z,59.76
2023-01-13T03:42:44.939Z,59.75
2023-01-13T03:45:11.811Z,59.74
2023-01-13T03:47:38.496Z,59.77
2023-01-13T03:50:05.181Z,59.72
2023-01-13T03:52:32.059Z,59.72
2023-01-13T03:54:58.739Z,59.74
2023-01-13T03:57:25.405Z,59.76
2023-01-13T03:59:52.122Z,59.78
2023-01-13T04:02:18.811Z,59.79
2023-01-13T04:04:45.503Z,59.75
2023-01-13T04:07:12.176Z,59.74
2023-01-13T04:09:38.854Z,59.78
2023-01-13T04:12:05.539Z,59.80
2023-01-13T04:14:32.171Z,59.82
2023-01-13T04:16:58.823Z,59.85
2023-01-13T04:19:25.444Z,59.80
2023-01-13T04:21:52.087Z,59.82
2023-01-13T04:24:18.739Z,59.79
2023-01-13T04:26:45.373Z,59.81
2023-01-13T04:29:14.041Z,59.81
2023-01-13T04:31:42.068Z,59.83
2023-01-13T04:34:08.743Z,59.84
2023-01-13T04:36:35.429Z,59.84
2023-01-13T04:39:02.292Z,59.87
2023-01-13T04:41:28.906Z,59.86
2023-01-13T04:43:55.756Z,59.93
2023-01-13T04:46:22.689Z,59.91
2023-01-13T04:48:49.386Z,59.84
2023-01-13T04:51:16.117Z,59.87
2023-01-13T04:53:42.781Z,59.88
2023-01-13T04:56:09.444Z,59.93
2023-01-13T04:58:36.187Z,59.93
2023-01-13T05:01:02.916Z,59.91
2023-01-13T05:03:29.606Z,59.90
2023-01-13T05:05:56.252Z,59.91
2023-01-13T05:08:22.885Z,59.93
2023-01-13T05:10:49.552Z,59.93
2023-01-13T05:13:16.233Z,59.92
2023-01-13T05:15:42.918Z,59.89
2023-01-13T05:18:09.680Z,59.90
2023-01-13T05:20:36.471Z,59.88
2023-01-13T05:23:03.392Z,59.90
2023-01-13T05:25:30.121Z,59.89
2023-01-13T05:27:56.786Z,59.93
2023-01-13T05:30:23.460Z,59.89
2023-01-13T05:32:50.101Z,59.90
2023-01-13T05:35:16.771Z,59.93
2023-01-13T05:37:43.438Z,59.89
2023-01-13T05:40:10.105Z,59.87
2023-01-13T05:42:36.774Z,59.90
2023-01-13T05:45:03.644Z,59.90
2023-01-13T05:47:30.326Z,59.87
2023-01-13T05:49:56.977Z,59.93
2023-01-13T05:52:23.637Z,59.91
2023-01-13T05:54:50.293Z,59.89
2023-01-13T05:57:16.942Z,59.87
2023-01-13T05:59:43.572Z,59.87
2023-01-13T06:02:10.230Z,59.86
2023-01-13T06:04:36.946Z,59.95
2023-01-13T06:07:03.598Z,59.90
2023-01-13T06:09:30.223Z,59.87
2023-01-13T06:11:56.894Z,59.93
2023-01-13T06:14:23.581Z,59.90
2023-01-13T06:16:50.244Z,59.92
2023-01-13T06:19:16.883Z,59.93
2023-01-13T06:21:43.524Z,59.94
2023-01-13T06:24:10.150Z,59.96
2023-01-13T06:26:36.823Z,59.86
2023-01-13T06:29:03.491Z,59.93
2023-01-13T06:31:30.185Z,59.93
2023-01-13T06:33:56.850Z,59.95
2023-01-13T06:36:23.487Z,59.94
2023-01-13T06:38:51.973Z,59.93
2023-01-13T06:41:18.619Z,59.93
2023-01-13T06:43:45.258Z,59.92
2023-01-13T06:46:11.923Z,59.97
2023-01-13T06:48:38.554Z,59.93
2023-01-13T06:51:05.224Z,59.98
2023-01-13T06:53:32.109Z,59.93
2023-01-13T06:55:58.995Z,59.93
2023-01-13T06:58:25.664Z,59.95
2023-01-13T07:00:52.402Z,59.94
2023-01-13T07:03:19.119Z,59.95
2023-01-13T07:05:45.765Z,60.00
2023-01-13T07:08:12.426Z,59.97
2023-01-13T07:10:39.084Z,59.97
2023-01-13T07:13:05.754Z,59.97
2023-01-13T07:15:32.407Z,59.98
2023-01-13T07:17:59.081Z,59.97
2023-01-13T07:20:25.714Z,60.01
2023-01-13T07:22:52.344Z,60.02
2023-01-13T07:25:18.999Z,59.98
2023-01-13T07:27:45.641Z,60.04
2023-01-13T07:30:12.275Z,60.05
2023-01-13T07:32:38.929Z,60.03
2023-01-13T07:35:05.606Z,60.00
2023-01-13T07:37:32.277Z,60.00
2023-01-13T07:39:58.912Z,60.01
2023-01-13T07:42:25.537Z,60.00
2023-01-13T07:44:52.200Z,60.00
2023-01-13T07:47:18.827Z,60.04
2023-01-13T07:49:45.461Z,60.02
2023-01-13T07:52:12.273Z,60.03
2023-01-13T07:54:41.011Z,60.01
2023-01-13T07:57:07.979Z,60.04
2023-01-13T07:59:34.860Z,60.04
2023-01-13T08:02:01.672Z,59.99
2023-01-13T08:04:28.647Z,60.00
2023-01-13T08:06:55.297Z,59.96
2023-01-13T08:09:21.942Z,60.07
2023-01-13T08:11:48.577Z,59.99
2023-01-13T08:14:15.226Z,60.06
2023-01-13T08:16:41.954Z,60.03
2023-01-13T08:19:08.621Z,60.08
2023-01-13T08:21:35.278Z,60.09
2023-01-13T08:24:01.907Z,60.09
2023-01-13T08:26:28.561Z,60.15
2023-01-13T08:28:55.212Z,60.13
2023-01-13T08:31:21.977Z,60.13
2023-01-13T08:33:51.097Z,60.14
2023-01-13T08:36:17.967Z,60.17
2023-01-13T08:38:44.596Z,60.17
2023-01-13T08:41:11.238Z,60.14
2023-01-13T08:43:37.897Z,60.18
2023-01-13T08:46:04.910Z,60.18
2023-01-13T08:48:31.831Z,60.18
2023-01-13T08:50:58.529Z,60.14
2023-01-13T08:53:25.185Z,60.13
2023-01-13T08:55:51.854Z,60.14
2023-01-13T08:58:18.484Z,60.18
2023-01-13T09:00:45.118Z,60.17
2023-01-13T09:03:11.772Z,60.18
2023-01-13T09:05:38.409Z,60.15
2023-01-13T09:08:05.028Z,60.18
2023-01-13T09:10:31.698Z,60.17
2023-01-13T09:12:58.359Z,60.16
2023-01-13T09:15:25.014Z,60.21
2023-01-13T09:17:51.668Z,60.24
2023-01-13T09:20:18.303Z,60.21
2023-01-13T09:22:44.979Z,60.17
2023-01-13T09:25:11.634Z,60.20
2023-01-13T09:27:38.328Z,60.22
2023-01-13T09:30:05.020Z,60.22
2023-01-13T09:32:31.666Z,60.18
2023-01-13T09:34:58.316Z,60.20
2023-01-13T09:37:24.975Z,60.16
2023-01-13T09:39:51.630Z,60.13
2023-01-13T09:42:18.301Z,60.18
2023-01-13T09:44:44.966Z,60.10
2023-01-13T09:47:14.036Z,60.11
2023-01-13T09:49:40.789Z,60.16
2023-01-13T09:52:07.486Z,60.19
2023-01-13T09:54:34.456Z,60.16
2023-01-13T09:57:01.116Z,60.18
2023-01-13T09:59:27.743Z,60.17
2023-01-13T10:01:54.402Z,60.19
2023-01-13T10:04:21.163Z,60.21
2023-01-13T10:06:47.856Z,60.24
2023-01-13T10:09:14.524Z,60.21
2023-01-13T10:11:41.200Z,60.24
2023-01-13T10:14:07.882Z,60.19
2023-01-13T10:16:34.528Z,60.22
2023-01-13T10:19:01.201Z,60.23
2023-01-13T10:21:27.872Z,60.20
2023-01-13T10:23:54.529Z,60.19
2023-01-13T10:26:21.242Z,60.19
2023-01-13T10:28:47.859Z,60.13
2023-01-13T10:31:14.522Z,60.15
2023-01-13T10:33:41.177Z,60.08
2023-01-13T10:36:07.833Z,60.04
2023-01-13T10:38:34.499Z,60.07
2023-01-13T10:41:01.167Z,59.94
2023-01-13T10:43:28.025Z,59.97
2023-01-13T10:45:54.655Z,59.93
2023-01-13T10:48:21.299Z,59.91
2023-01-13T10:50:47.925Z,59.91
2023-01-13T10:53:15.157Z,59.89
2023-01-13T10:55:41.793Z,59.85
2023-01-13T10:58:08.490Z,59.82
2023-01-13T11:00:35.133Z,59.88
2023-01-13T11:03:01.790Z,59.98
2023-01-13T11:05:28.460Z,60.04
2023-01-13T11:07:55.101Z,60.04
2023-01-13T11:10:21.737Z,59.96
2023-01-13T11:12:48.417Z,59.96
2023-01-13T11:15:15.058Z,60.00
2023-01-13T11:17:41.713Z,60.00
2023-01-13T11:20:08.360Z,60.02
2023-01-13T11:22:35.211Z,60.07
2023-01-13T11:25:01.890Z,60.02
2023-01-13T11:27:28.571Z,60.00
2023-01-13T11:29:55.228Z,59.90
2023-01-13T11:32:22.075Z,59.95
2023-01-13T11:34:48.702Z,59.94
2023-01-13T11:37:15.360Z,59.98
2023-01-13T11:39:42.004Z,60.01
2023-01-13T11:42:08.637Z,59.95
2023-01-13T11:44:35.303Z,59.96
2023-01-13T11:47:02.018Z,60.00
2023-01-13T11:49:28.713Z,60.01
2023-01-13T11:51:55.345Z,60.08
2023-01-13T11:54:22.011Z,60.09
2023-01-13T11:56:48.870Z,60.11
2023-01-13T11:59:15.527Z,59.96
2023-01-13T12:01:42.238Z,59.98
2023-01-13T12:04:08.905Z,59.98
2023-01-13T12:06:35.582Z,59.99
2023-01-13T12:09:02.250Z,59.97
2023-01-13T12:11:28.920Z,59.93
2023-01-13T12:13:55.578Z,60.02
2023-01-13T12:16:22.444Z,60.03
2023-01-13T12:18:49.091Z,60.08
2023-01-13T12:21:15.763Z,60.04
2023-01-13T12:23:42.408Z,60.00
2023-01-13T12:26:09.084Z,60.07
2023-01-13T12:28:35.795Z,60.02
2023-01-13T12:31:02.438Z,60.04
2023-01-13T12:33:29.081Z,60.05
2023-01-13T12:35:55.762Z,60.00
2023-01-13T12:38:22.416Z,60.00
2023-01-13T12:40:49.067Z,60.01
2023-01-13T12:43:15.941Z,59.98
2023-01-13T12:45:42.630Z,60.04
2023-01-13T12:48:09.317Z,60.07
2023-01-13T12:50:36.191Z,60.05
2023-01-13T12:53:02.847Z,60.07
2023-01-13T12:55:29.522Z,60.09
2023-01-13T12:57:56.167Z,60.13
2023-01-13T13:00:22.811Z,60.12
2023-01-13T13:02:49.472Z,60.15
2023-01-13T13:05:16.157Z,60.12
2023-01-13T13:07:42.838Z,60.17
2023-01-13T13:10:09.786Z,60.18
2023-01-13T13:12:36.424Z,60.10
2023-01-13T13:15:04.136Z,60.15
2023-01-13T13:17:30.999Z,60.17
2023-01-13T13:19:57.661Z,60.14
2023-01-13T13:22:24.534Z,60.19
2023-01-13T13:24:51.192Z,60.18
2023-01-13T13:27:18.067Z,60.17
2023-01-13T13:29:44.772Z,60.20
2023-01-13T13:32:11.410Z,60.27
2023-01-13T13:34:38.082Z,60.29
2023-01-13T13:37:04.973Z,60.27
2023-01-13T13:39:31.647Z,60.16
2023-01-13T13:41:58.292Z,60.18
2023-01-13T13:44:24.932Z,60.12
2023-01-13T13:46:54.412Z,60.17
2023-01-13T13:49:21.084Z,59.77
2023-01-13T13:51:47.771Z,59.88
2023-01-13T13:54:14.461Z,60.07
2023-01-13T13:56:41.103Z,60.19
2023-01-13T13:59:07.757Z,60.15
2023-01-13T14:01:34.538Z,60.30
2023-01-13T14:04:01.259Z,60.27
2023-01-13T14:06:27.918Z,60.26
2023-01-13T14:08:54.657Z,60.27
2023-01-13T14:11:21.326Z,60.30
2023-01-13T14:13:47.950Z,60.30
2023-01-13T14:16:14.587Z,60.19
2023-01-13T14:18:41.230Z,60.24
2023-01-13T14:21:07.888Z,60.16
2023-01-13T14:23:34.538Z,60.00
2023-01-13T14:26:01.177Z,60.02
2023-01-13T14:28:27.807Z,60.12
2023-01-13T14:30:54.705Z,60.15
2023-01-13T14:33:21.381Z,60.17
2023-01-13T14:35:48.063Z,60.14
2023-01-13T14:38:15.998Z,60.21
2023-01-13T14:40:42.660Z,60.17
2023-01-13T14:43:09.306Z,60.23
2023-01-13T14:45:35.940Z,60.29
2023-01-13T14:48:02.624Z,60.24
2023-01-13T14:50:29.291Z,60.28
2023-01-13T14:52:55.929Z,60.32
2023-01-13T14:55:22.565Z,60.38
2023-01-13T14:57:49.209Z,60.40
2023-01-13T15:00:15.868Z,60.37
2023-01-13T15:02:42.548Z,60.39
2023-01-13T15:05:09.442Z,60.40
2023-01-13T15:07:36.107Z,60.37
2023-01-13T15:10:02.751Z,60.37
2023-01-13T15:12:29.377Z,60.36
2023-01-13T15:14:56.930Z,60.66
2023-01-13T15:17:23.619Z,60.65
2023-01-13T15:19:50.312Z,60.77
2023-01-13T15:22:16.992Z,60.82
2023-01-13T15:24:43.662Z,60.76
2023-01-13T15:27:10.355Z,60.78
2023-01-13T15:29:37.947Z,60.81
2023-01-13T15:32:04.606Z,60.86
2023-01-13T15:34:31.244Z,60.89
2023-01-13T15:36:58.118Z,60.88
2023-01-13T15:39:24.752Z,60.85
2023-01-13T15:41:51.411Z,60.81
2023-01-13T15:44:18.093Z,60.81
2023-01-13T15:46:44.791Z,60.79
2023-01-13T15:49:11.471Z,60.79
2023-01-13T15:51:38.122Z,60.79
2023-01-13T15:54:04.969Z,60.78
2023-01-13T15:56:31.759Z,60.76
2023-01-13T15:58:58.622Z,61.01
2023-01-13T16:01:25.402Z,61.02
2023-01-13T16:03:53.064Z,61.03
2023-01-13T16:06:19.830Z,61.07
2023-01-13T16:08:46.712Z,60.97
2023-01-13T16:11:13.378Z,61.02
2023-01-13T16:13:40.020Z,60.99
2023-01-13T16:16:06.708Z,60.98
2023-01-13T16:18:33.612Z,60.94
2023-01-13T16:21:00.288Z,60.87
2023-01-13T16:23:26.966Z,61.05
2023-01-13T16:25:53.615Z,61.14
2023-01-13T16:28:20.270Z,61.36
2023-01-13T16:30:46.913Z,61.16
2023-01-13T16:33:13.566Z,61.10
2023-01-13T16:35:43.892Z,60.94
2023-01-13T16:38:26.863Z,61.03
2023-01-13T16:40:53.515Z,61.17
2023-01-13T16:43:20.363Z,61.07
2023-01-13T16:45:47.103Z,61.05
2023-01-13T16:48:13.785Z,61.14
2023-01-13T16:50:40.437Z,61.14
2023-01-13T16:53:07.082Z,61.14
2023-01-13T16:55:33.719Z,61.14
2023-01-13T16:58:00.379Z,61.16
2023-01-13T17:00:27.028Z,61.26
2023-01-13T17:02:53.669Z,61.16
2023-01-13T17:05:20.302Z,61.18
2023-01-13T17:07:47.196Z,61.17
2023-01-13T17:10:13.838Z,61.18
2023-01-13T17:12:40.487Z,61.26
2023-01-13T17:15:07.131Z,61.14
2023-01-13T17:17:33.793Z,61.20
2023-01-13T17:20:00.477Z,61.25
2023-01-13T17:22:27.124Z,61.18
2023-01-13T17:24:53.789Z,61.18
2023-01-13T17:27:23.532Z,61.19
2023-01-13T17:29:52.740Z,61.18
2023-01-13T17:32:19.654Z,61.08
2023-01-13T17:34:46.305Z,61.05
2023-01-13T17:37:12.954Z,60.96
2023-01-13T17:39:39.611Z,60.96
2023-01-13T17:42:06.264Z,61.49
2023-01-13T17:44:36.004Z,61.61
2023-01-13T17:47:02.866Z,61.40
2023-01-13T17:49:29.838Z,61.17
2023-01-13T17:51:56.692Z,61.27
2023-01-13T17:54:23.343Z,61.25
2023-01-13T17:56:49.981Z,61.22
2023-01-13T17:59:16.648Z,61.23
2023-01-13T18:01:43.427Z,61.38
2023-01-13T18:04:10.483Z,61.61
2023-01-13T18:06:37.130Z,61.71
2023-01-13T18:09:03.977Z,61.97
2023-01-13T18:11:30.645Z,62.11
2023-01-13T18:13:57.302Z,62.01
2023-01-13T18:16:23.984Z,62.01
2023-01-13T18:18:51.470Z,62.20
2023-01-13T18:21:18.367Z,62.19
2023-01-13T18:23:44.999Z,62.22
2023-01-13T18:26:11.627Z,62.37
2023-01-13T18:28:38.276Z,62.40
2023-01-13T18:31:05.020Z,62.47
2023-01-13T18:33:31.737Z,62.57
2023-01-13T18:35:58.580Z,62.93
2023-01-13T18:38:25.243Z,63.36
2023-01-13T18:40:51.927Z,63.46
2023-01-13T18:43:18.641Z,63.58
2023-01-13T18:45:45.357Z,63.52
2023-01-13T18:48:12.010Z,63.46
2023-01-13T18:50:38.648Z,63.47
2023-01-13T18:53:05.712Z,63.54
2023-01-13T18:55:32.406Z,63.64
2023-01-13T18:57:59.275Z,63.57
2023-01-13T19:00:25.931Z,63.59
2023-01-13T19:05:32.537Z,63.74
2023-01-13T19:07:59.181Z,63.54
2023-01-13T19:10:26.100Z,63.70
2023-01-13T19:12:53.004Z,63.74
2023-01-13T19:15:19.892Z,63.76
2023-01-13T19:17:46.529Z,63.77
2023-01-13T19:20:13.159Z,63.81
2023-01-13T19:22:40.010Z,63.76
2023-01-13T19:25:06.675Z,63.73
2023-01-13T19:27:33.331Z,63.68
2023-01-13T19:29:59.983Z,63.77
2023-01-13T19:32:26.867Z,63.74
2023-01-13T19:34:53.499Z,63.68
2023-01-13T19:39:04.874Z,62.25
2023-01-13T19:41:31.539Z,61.68
2023-01-13T19:43:58.184Z,63.22
2023-01-13T19:46:25.116Z,62.75
2023-01-13T19:48:51.794Z,62.93
2023-01-13T19:51:18.461Z,63.02
2023-01-13T19:53:45.126Z,62.63
2023-01-13T19:56:11.782Z,61.98
2023-01-13T19:58:38.462Z,62.57
2023-01-13T20:01:05.183Z,62.03
2023-01-13T20:03:31.893Z,62.57
2023-01-13T20:05:58.552Z,62.82
2023-01-13T20:08:25.187Z,62.94
2023-01-13T20:10:51.869Z,62.45
2023-01-13T20:13:18.535Z,62.10
2023-01-13T20:15:45.255Z,62.37
2023-01-13T20:18:11.939Z,61.74
2023-01-13T20:20:39.062Z,62.22
2023-01-13T20:23:05.722Z,62.43
2023-01-13T20:25:32.441Z,62.72
2023-01-13T20:27:59.132Z,62.84
2023-01-13T20:30:25.815Z,62.95
2023-01-13T20:32:52.470Z,63.00
2023-01-13T20:35:19.118Z,63.09
2023-01-13T20:37:45.958Z,62.64
2023-01-13T20:40:12.608Z,61.50
2023-01-13T20:42:39.450Z,62.12
2023-01-13T20:45:06.101Z,62.52
2023-01-13T20:47:32.979Z,62.79
2023-01-13T20:49:59.628Z,62.74
2023-01-13T20:52:26.501Z,62.85
2023-01-13T20:54:53.166Z,62.86
2023-01-13T20:57:20.118Z,62.90
2023-01-13T20:59:47.098Z,62.96
2023-01-13T21:02:13.955Z,63.05
2023-01-13T21:04:40.665Z,63.15
2023-01-13T21:07:07.559Z,63.20
2023-01-13T21:09:34.196Z,63.25
2023-01-13T21:12:00.823Z,63.35
2023-01-13T21:14:27.466Z,62.97
2023-01-13T21:16:54.108Z,62.24
2023-01-13T21:19:20.767Z,62.11
2023-01-13T21:21:47.410Z,62.59
2023-01-13T21:24:14.056Z,62.89
2023-01-13T21:26:40.690Z,62.93
2023-01-13T21:29:07.340Z,63.06
2023-01-13T21:31:34.008Z,63.06
2023-01-13T21:34:00.682Z,63.11
2023-01-13T21:36:27.341Z,62.98
2023-01-13T21:38:53.995Z,62.04
2023-01-13T21:41:20.648Z,62.54
2023-01-13T21:43:47.541Z,62.78
2023-01-13T21:46:14.466Z,63.00
2023-01-13T21:48:41.170Z,63.07
2023-01-13T21:51:07.833Z,63.18
2023-01-13T21:53:34.528Z,63.27
2023-01-13T21:56:01.244Z,62.75
2023-01-13T21:58:27.939Z,62.04
2023-01-13T22:00:54.722Z,62.35
2023-01-13T22:03:21.424Z,62.28
2023-01-13T22:05:48.305Z,61.25
2023-01-13T22:08:15.185Z,61.54
2023-01-13T22:10:41.858Z,61.71
2023-01-13T22:13:08.710Z,61.70
2023-01-13T22:15:35.370Z,61.88
2023-01-13T22:18:02.031Z,61.62
2023-01-13T22:20:28.694Z,61.43
2023-01-13T22:22:55.564Z,61.31
2023-01-13T22:25:22.221Z,61.45
2023-01-13T22:27:48.854Z,61.55
2023-01-13T22:30:15.541Z,61.43
2023-01-13T22:32:42.230Z,61.56
2023-01-13T22:35:08.875Z,61.58
2023-01-13T22:37:38.700Z,61.62
2023-01-13T22:40:05.351Z,61.69
2023-01-13T22:42:32.015Z,61.55
2023-01-13T22:44:58.893Z,61.56
2023-01-13T22:47:25.566Z,61.66
2023-01-13T22:49:52.222Z,61.52
2023-01-13T22:52:18.877Z,61.73
2023-01-13T22:54:45.527Z,61.68
2023-01-13T22:57:12.629Z,61.63
2023-01-13T22:59:39.338Z,61.57
2023-01-13T23:02:05.994Z,61.60
2023-01-13T23:04:32.987Z,61.59
2023-01-13T23:06:59.680Z,61.52
2023-01-13T23:09:26.311Z,61.45
2023-01-13T23:11:52.959Z,61.62
2023-01-13T23:14:19.612Z,61.52
2023-01-13T23:16:46.284Z,61.57
2023-01-13T23:19:12.974Z,61.51
2023-01-13T23:21:39.655Z,61.51
2023-01-13T23:24:06.539Z,61.47
2023-01-13T23:26:33.448Z,61.40
2023-01-13T23:29:00.140Z,61.43
2023-01-13T23:31:26.999Z,61.28
2023-01-13T23:33:53.641Z,61.20
2023-01-13T23:36:20.493Z,61.29
2023-01-13T23:38:47.172Z,61.20
2023-01-13T23:41:14.133Z,61.14
2023-01-13T23:43:40.771Z,61.14
2023-01-13T23:46:07.515Z,61.09
2023-01-13T23:48:34.251Z,61.09
2023-01-13T23:51:00.912Z,61.06
2023-01-13T23:53:27.767Z,61.04
2023-01-13T23:55:54.439Z,61.07
2023-01-13T23:58:21.118Z,61.02
